Time;durP1;ratioP1;P1;durP2;ratioP2;P2;SDS_P1;SDS_P2;PMS_P1;PMS_P2;Temp;Humidity;BMP_temperature;BMP_pressure;BME280_temperature;BME280_humidity;BME280_pressure;Samples;Min_cycle;Max_cycle;Signal;HPM_P1;HPM_P2
2023/08/18 00:00:28;;;;;;;;;;;;;;;29.17;37.49;94311.03;4995585;28;9244;-63
2023/08/18 00:02:54;;;;;;;;;;;;;;;29.16;37.76;94303.25;4913482;29;7012;-64
2023/08/18 00:05:20;;;;;;;;;;;;;;;29.16;37.39;94303.25;4907886;29;7209;-64
2023/08/18 00:08:18;;;;;;;;;;;;;;;29.15;37.99;94296.94;4911688;29;9428;-63
2023/08/18 00:10:51;;;;;;;;;;;;;;;29.14;37.52;94300.25;4901228;29;7286;-63
2023/08/18 00:13:21;;;;;;;;;;;;;;;29.13;37.69;94298.75;4905474;29;9165;-63
2023/08/18 00:16:08;;;;;;;;;;;;;;;29.12;37.88;94294.50;4898129;29;7876;-63
2023/08/18 00:18:48;;;;;;;;;;;;;;;29.12;37.20;94291.75;4909345;29;7008;-63
2023/08/18 00:21:18;;;;;;;;;;;;;;;29.14;37.91;94294.72;4898638;29;7267;-63
2023/08/18 00:23:47;;;;;;;;;;;;;;;29.14;37.24;94284.41;4898020;29;7271;-63
2023/08/18 00:26:13;;;;;;;;;;;;;;;29.14;37.93;94294.72;4889460;29;7231;-63
2023/08/18 00:28:40;;;;;;;;;;;;;;;29.13;37.94;94298.75;4906144;29;9135;-63
2023/08/18 00:31:06;;;;;;;;;;;;;;;29.12;37.69;94294.50;4890768;29;7231;-64
2023/08/18 00:33:32;;;;;;;;;;;;;;;29.10;37.65;94290.25;4912558;29;6983;-63
2023/08/18 00:36:16;;;;;;;;;;;;;;;29.12;37.25;94300.06;4950314;28;8601;-63
2023/08/18 00:38:43;;;;;;;;;;;;;;;29.11;37.96;94293.75;4975858;28;7067;-63
2023/08/18 00:41:28;;;;;;;;;;;;;;;29.09;37.79;94293.56;5027729;28;7674;-63
2023/08/18 00:44:02;;;;;;;;;;;;;;;29.03;37.75;94282.63;5015307;28;8733;-63
2023/08/18 00:46:31;;;;;;;;;;;;;;;29.08;37.81;94290.03;5013916;28;8979;-63
2023/08/18 00:49:23;;;;;;;;;;;;;;;29.09;37.75;94299.84;5004851;28;7062;-63
2023/08/18 00:51:51;;;;;;;;;;;;;;;29.08;37.88;94292.81;5012432;28;7289;-63
2023/08/18 00:54:27;;;;;;;;;;;;;;;29.04;37.82;94292.41;5016915;28;7082;-63
2023/08/18 00:56:58;;;;;;;;;;;;;;;29.06;37.34;94295.38;5028255;28;8119;-63
2023/08/18 00:59:36;;;;;;;;;;;;;;;29.02;37.36;94294.22;5007006;28;7227;-64
2023/08/18 01:02:04;;;;;;;;;;;;;;;29.05;38.04;94296.66;4983607;28;9230;-63
2023/08/18 01:04:38;;;;;;;;;;;;;;;29.03;37.54;94290.94;5005732;28;7071;-61
2023/08/18 01:07:04;;;;;;;;;;;;;;;29.03;37.50;94290.94;5022485;28;7068;-61
2023/08/18 01:09:33;;;;;;;;;;;;;;;29.04;37.04;94295.16;5033306;28;8639;-62
2023/08/18 01:12:30;;;;;;;;;;;;;;;29.04;36.63;94297.94;5036746;28;7464;-62
2023/08/18 01:15:07;;;;;;;;;;;;;;;29.03;36.71;94302.00;5022380;28;7017;-62
2023/08/18 01:18:19;;;;;;;;;;;;;;;29.02;37.16;94297.72;5008793;28;9075;-62
2023/08/18 01:21:27;;;;;;;;;;;;;;;29.02;37.63;94294.97;5008005;28;7230;-61
2023/08/18 01:23:56;;;;;;;;;;;;;;;28.99;36.72;94290.47;4954507;28;7221;-62
2023/08/18 01:26:31;;;;;;;;;;;;;;;28.99;37.47;94290.47;4972576;28;7064;-62
2023/08/18 01:29:07;;;;;;;;;;;;;;;29.00;37.02;94291.22;4956473;28;9140;-62
2023/08/18 01:31:37;;;;;;;;;;;;;;;29.00;36.67;94291.97;4956656;28;8886;-62
2023/08/18 01:34:18;;;;;;;;;;;;;;;29.00;37.15;94289.22;4957879;28;7888;-61
2023/08/18 01:36:59;;;;;;;;;;;;;;;28.98;37.15;94289.00;4956739;28;7066;-62
2023/08/18 01:39:28;;;;;;;;;;;;;;;28.98;37.53;94294.56;4972719;28;7138;-62
2023/08/18 01:41:57;;;;;;;;;;;;;;;28.99;37.19;94296.03;4973459;28;7170;-61
2023/08/18 01:44:34;;;;;;;;;;;;;;;28.96;36.73;94283.25;4977042;28;8545;-62
2023/08/18 01:47:32;;;;;;;;;;;;;;;28.99;36.26;94273.16;4971112;28;9470;-62
2023/08/18 01:50:00;;;;;;;;;;;;;;;28.97;36.80;94273.66;4949178;28;7188;-62
2023/08/18 01:52:27;;;;;;;;;;;;;;;28.92;37.41;94266.25;4952582;28;7253;-62
2023/08/18 01:54:54;;;;;;;;;;;;;;;28.93;37.24;94270.47;4987399;28;7455;-62
2023/08/18 01:57:52;;;;;;;;;;;;;;;28.95;36.75;94275.47;5012038;28;7219;-62
2023/08/18 02:00:19;;;;;;;;;;;;;;;28.92;36.67;94273.78;5006738;28;7165;-62
2023/08/18 02:02:55;;;;;;;;;;;;;;;28.94;37.04;94271.97;4991551;28;8205;-62
2023/08/18 02:05:37;;;;;;;;;;;;;;;28.92;36.93;94263.47;4996126;28;7062;-61
2023/08/18 02:08:06;;;;;;;;;;;;;;;28.95;36.82;94272.72;4973572;28;8777;-61
2023/08/18 02:10:39;;;;;;;;;;;;;;;28.93;36.96;94264.19;4965650;28;7093;-61
2023/08/18 02:13:29;;;;;;;;;;;;;;;28.94;36.59;94271.22;4972460;28;7179;-61
2023/08/18 02:16:09;;;;;;;;;;;;;;;28.95;37.31;94272.72;4986300;28;7346;-62
2023/08/18 02:18:49;;;;;;;;;;;;;;;28.93;36.77;94273.25;4970051;28;9091;-62
2023/08/18 02:21:16;;;;;;;;;;;;;;;28.95;36.63;94278.25;4978689;28;9654;-62
2023/08/18 02:23:51;;;;;;;;;;;;;;;28.91;36.89;94273.03;4986622;28;7420;-62
2023/08/18 02:26:29;;;;;;;;;;;;;;;28.92;36.60;94269.00;4989881;28;7422;-62
2023/08/18 02:29:10;;;;;;;;;;;;;;;28.92;36.72;94274.53;4968691;28;7355;-62
2023/08/18 02:31:36;;;;;;;;;;;;;;;28.90;36.62;94266.03;4970611;28;9148;-62
2023/08/18 02:34:03;;;;;;;;;;;;;;;28.91;36.86;94272.28;4978506;28;8727;-62
2023/08/18 02:36:55;;;;;;;;;;;;;;;28.91;36.73;94266.75;5002985;28;6997;-62
2023/08/18 02:39:50;;;;;;;;;;;;;;;28.90;36.68;94270.81;4982896;28;7090;-62
2023/08/18 02:42:16;;;;;;;;;;;;;;;28.88;36.37;94270.63;4917116;29;9101;-62
2023/08/18 02:44:57;;;;;;;;;;;;;;;28.87;36.86;94271.88;4922395;29;7336;-62
2023/08/18 02:47:31;;;;;;;;;;;;;;;28.88;37.02;94274.09;4918941;29;7274;-62
2023/08/18 02:49:59;;;;;;;;;;;;;;;28.86;36.13;94273.91;4911215;29;6974;-62
2023/08/18 02:52:44;;;;;;;;;;;;;;;28.87;36.68;94271.88;4930116;29;7074;-62
2023/08/18 02:55:10;;;;;;;;;;;;;;;28.85;36.96;94263.38;4917481;29;8708;-62
2023/08/18 02:57:50;;;;;;;;;;;;;;;28.85;36.48;94264.13;4917432;29;9152;-62
2023/08/18 03:00:34;;;;;;;;;;;;;;;28.85;36.41;94264.13;4916471;29;6987;-62
2023/08/18 03:03:17;;;;;;;;;;;;;;;28.84;37.19;94272.97;4914602;29;6992;-62
2023/08/18 03:05:45;;;;;;;;;;;;;;;28.84;37.32;94265.38;4924699;28;7240;-63
2023/08/18 03:08:31;;;;;;;;;;;;;;;28.83;36.09;94266.69;4914555;29;7370;-63
2023/08/18 03:11:00;;;;;;;;;;;;;;;28.79;36.90;94263.50;4927760;29;7091;-63
2023/08/18 03:13:40;;;;;;;;;;;;;;;28.82;36.35;94267.94;4914298;29;7146;-63
2023/08/18 03:16:09;;;;;;;;;;;;;;;28.80;36.56;94262.19;4935183;28;7315;-62
2023/08/18 03:18:35;;;;;;;;;;;;;;;28.81;36.58;94272.00;4977398;28;7264;-63
2023/08/18 03:21:08;;;;;;;;;;;;;;;28.80;36.28;94273.28;5006976;28;7094;-63
2023/08/18 03:23:35;;;;;;;;;;;;;;;28.77;36.73;94265.31;5007652;28;9225;-62
2023/08/18 03:26:03;;;;;;;;;;;;;;;28.76;36.67;94261.03;5014013;28;7467;-65
2023/08/18 03:28:35;;;;;;;;;;;;;;;28.77;37.04;94263.28;5009096;28;7225;-65
2023/08/18 03:31:06;;;;;;;;;;;;;;;28.78;37.10;94270.31;5011066;28;7797;-65
2023/08/18 03:33:35;;;;;;;;;;;;;;;28.72;36.27;94260.63;5004642;28;9347;-65
2023/08/18 03:36:10;;;;;;;;;;;;;;;28.76;36.59;94270.09;5012869;28;9022;-65
2023/08/18 03:38:43;;;;;;;;;;;;;;;28.72;36.55;94272.44;5025696;28;8345;-65
2023/08/18 03:41:33;;;;;;;;;;;;;;;28.72;36.24;94266.91;5009003;28;7407;-65
2023/08/18 03:44:25;;;;;;;;;;;;;;;28.74;36.67;94275.41;5031407;28;7224;-65
2023/08/18 03:47:22;;;;;;;;;;;;;;;28.74;36.46;94266.38;5027999;28;7006;-65
2023/08/18 03:49:57;;;;;;;;;;;;;;;28.73;37.01;94273.19;5033429;28;7204;-65
2023/08/18 03:52:38;;;;;;;;;;;;;;;28.69;36.43;94275.53;5025990;28;7263;-65
2023/08/18 03:55:04;;;;;;;;;;;;;;;28.65;36.42;94273.09;5025388;28;9073;-64
2023/08/18 03:57:30;;;;;;;;;;;;;;;28.62;36.96;94276.94;5038726;28;8896;-64
2023/08/18 04:00:00;;;;;;;;;;;;;;;28.59;36.57;94275.22;5059216;28;7261;-64
2023/08/18 04:02:31;;;;;;;;;;;;;;;28.58;36.65;94273.72;5026008;28;7192;-65
2023/08/18 04:04:58;;;;;;;;;;;;;;;28.55;37.05;94277.53;4994118;28;7353;-64
2023/08/18 04:07:43;;;;;;;;;;;;;;;28.52;37.25;94269.56;5031394;28;7276;-64
2023/08/18 04:10:18;;;;;;;;;;;;;;;28.52;36.76;94275.84;5037452;28;8825;-64
2023/08/18 04:12:46;;;;;;;;;;;;;;;28.51;36.64;94279.91;5025254;28;6996;-65
2023/08/18 04:15:23;;;;;;;;;;;;;;;28.49;36.74;94273.41;5035871;28;9002;-65
2023/08/18 04:17:50;;;;;;;;;;;;;;;28.51;36.99;94276.38;5054780;28;7205;-65
2023/08/18 04:20:18;;;;;;;;;;;;;;;28.49;36.61;94276.91;5038472;28;9420;-65
2023/08/18 04:22:47;;;;;;;;;;;;;;;28.47;37.37;94279.44;5024783;28;8868;-65
2023/08/18 04:25:16;;;;;;;;;;;;;;;28.46;36.99;94280.00;5017464;28;7325;-64
2023/08/18 04:27:41;;;;;;;;;;;;;;;28.46;36.77;94277.22;5042306;28;9280;-64
2023/08/18 04:30:12;;;;;;;;;;;;;;;28.47;36.82;94284.97;5008443;28;7892;-65
2023/08/18 04:32:39;;;;;;;;;;;;;;;28.44;36.99;94283.28;5011801;28;9147;-64
2023/08/18 04:35:24;;;;;;;;;;;;;;;28.45;37.46;94287.53;5013904;28;8924;-63
2023/08/18 04:37:56;;;;;;;;;;;;;;;28.43;37.30;94281.78;5001050;28;7235;-62
2023/08/18 04:40:30;;;;;;;;;;;;;;;28.43;37.25;94286.59;5011432;28;7071;-63
2023/08/18 04:43:07;;;;;;;;;;;;;;;28.41;36.71;94292.66;5002781;28;9089;-63
2023/08/18 04:45:39;;;;;;;;;;;;;;;28.41;36.41;94278.81;5009751;28;9169;-63
2023/08/18 04:48:21;;;;;;;;;;;;;;;28.40;37.33;94280.09;5012787;28;6997;-63
2023/08/18 04:50:50;;;;;;;;;;;;;;;28.40;36.96;94284.88;5006810;28;9173;-63
2023/08/18 04:53:16;;;;;;;;;;;;;;;28.40;37.13;94296.72;5004523;28;8796;-63
2023/08/18 04:56:08;;;;;;;;;;;;;;;28.38;37.02;94298.50;5011616;28;7292;-63
2023/08/18 04:58:37;;;;;;;;;;;;;;;28.35;36.98;94301.06;5011914;28;7308;-62
2023/08/18 05:01:04;;;;;;;;;;;;;;;28.33;36.68;94292.56;5042470;28;9577;-63
2023/08/18 05:03:46;;;;;;;;;;;;;;;28.31;37.25;94297.88;5010532;28;7278;-63
2023/08/18 05:06:40;;;;;;;;;;;;;;;28.34;37.51;94307.09;5023218;28;9054;-62
2023/08/18 05:09:25;;;;;;;;;;;;;;;28.32;37.22;94296.59;4984843;28;6970;-63
2023/08/18 05:11:54;;;;;;;;;;;;;;;28.32;37.20;94302.13;4969272;28;7460;-62
2023/08/18 05:14:35;;;;;;;;;;;;;;;28.31;37.28;94295.09;4997630;28;7184;-63
2023/08/18 05:17:11;;;;;;;;;;;;;;;28.27;37.18;94291.88;4991629;28;7238;-63
2023/08/18 05:19:52;;;;;;;;;;;;;;;28.29;37.16;94305.22;4974254;28;7266;-62
2023/08/18 05:22:23;;;;;;;;;;;;;;;28.31;37.10;94299.88;4968878;28;7042;-62
2023/08/18 05:25:27;;;;;;;;;;;;;;;28.30;37.88;94306.69;4974309;28;6996;-62
2023/08/18 05:31:17;;;;;;;;;;;;;;;28.31;37.51;94302.66;4930884;29;7084;-63
2023/08/18 05:33:54;;;;;;;;;;;;;;;28.30;37.84;94296.38;4917964;29;7289;-62
2023/08/18 05:36:24;;;;;;;;;;;;;;;28.29;37.01;94292.13;4930231;29;7270;-62
2023/08/18 05:39:04;;;;;;;;;;;;;;;28.28;37.87;94292.63;4929261;29;7207;-62
2023/08/18 05:41:30;;;;;;;;;;;;;;;28.31;37.10;94294.34;4929676;29;9186;-63
2023/08/18 05:43:58;;;;;;;;;;;;;;;28.27;37.30;94291.16;4930839;29;9685;-61
2023/08/18 05:46:23;;;;;;;;;;;;;;;28.29;37.31;94305.97;4972400;28;6984;-61
2023/08/18 05:48:49;;;;;;;;;;;;;;;28.30;37.16;94303.91;4971422;28;7445;-61
2023/08/18 05:51:15;;;;;;;;;;;;;;;28.31;37.90;94308.19;4969478;28;9042;-61
2023/08/18 05:53:56;;;;;;;;;;;;;;;28.28;37.32;94307.22;4970000;28;10106;-61
2023/08/18 05:56:22;;;;;;;;;;;;;;;28.30;37.40;94301.91;4971862;28;9156;-62
2023/08/18 05:59:08;;;;;;;;;;;;;;;28.30;37.75;94309.44;4987472;28;6984;-61
2023/08/18 06:01:42;;;;;;;;;;;;;;;28.30;37.44;94307.44;4970168;28;7064;-61
2023/08/18 06:04:17;;;;;;;;;;;;;;;28.28;37.50;94312.75;5009431;28;8196;-61
2023/08/18 06:06:46;;;;;;;;;;;;;;;28.28;37.49;94312.75;5020455;28;9601;-61
2023/08/18 06:09:15;;;;;;;;;;;;;;;28.28;38.13;94312.75;5007168;28;7059;-62
2023/08/18 06:11:43;;;;;;;;;;;;;;;28.27;38.10;94310.53;5025143;28;9386;-61
2023/08/18 06:14:09;;;;;;;;;;;;;;;28.25;38.24;94311.03;5023185;28;7228;-61
2023/08/18 06:16:35;;;;;;;;;;;;;;;28.28;37.76;94312.00;5023658;28;7036;-61
2023/08/18 06:19:04;;;;;;;;;;;;;;;28.25;37.86;94311.03;5018275;28;8526;-61
2023/08/18 06:22:00;;;;;;;;;;;;;;;28.28;38.25;94317.53;5003738;28;7136;-61
2023/08/18 06:24:30;;;;;;;;;;;;;;;28.28;37.85;94317.53;4973832;28;7216;-61
2023/08/18 06:26:56;;;;;;;;;;;;;;;28.28;40.69;94317.53;4971425;28;9079;-61
2023/08/18 06:29:23;;;;;;;;;;;;;;;28.31;39.81;94319.25;4988497;28;9173;-62
2023/08/18 06:31:49;;;;;;;;;;;;;;;28.29;40.54;94313.50;4968151;28;7200;-61
2023/08/18 06:34:23;;;;;;;;;;;;;;;28.29;40.42;94313.50;4972575;28;7036;-61
2023/08/18 06:36:58;;;;;;;;;;;;;;;28.29;40.06;94313.50;4969721;28;7317;-61
2023/08/18 06:39:26;;;;;;;;;;;;;;;28.29;39.07;94314.25;4989159;28;7566;-62
2023/08/18 06:41:55;;;;;;;;;;;;;;;28.30;39.07;94312.97;4973524;28;7125;-62
2023/08/18 06:44:39;;;;;;;;;;;;;;;28.30;39.47;94320.50;4991623;28;8886;-61
2023/08/18 06:47:15;;;;;;;;;;;;;;;28.30;39.24;94315.72;4967813;28;7211;-61
2023/08/18 06:49:59;;;;;;;;;;;;;;;28.31;38.68;94308.94;4966501;28;7285;-62
2023/08/18 06:52:44;;;;;;;;;;;;;;;28.30;39.21;94309.44;4987597;28;6988;-61
2023/08/18 06:55:20;;;;;;;;;;;;;;;28.31;38.77;94314.47;5001048;28;7533;-56
2023/08/18 06:58:25;;;;;;;;;;;;;;;28.33;38.58;94316.69;4985240;28;7090;-56
2023/08/18 07:01:09;;;;;;;;;;;;;;;28.32;39.35;94318.72;4925708;29;7236;-56
2023/08/18 07:03:45;;;;;;;;;;;;;;;28.32;39.14;94317.97;4933610;29;7170;-56
2023/08/18 07:06:11;;;;;;;;;;;;;;;28.32;38.96;94321.47;4944595;29;7399;-57
2023/08/18 07:08:37;;;;;;;;;;;;;;;28.33;39.36;94328.50;4944769;28;7155;-56
2023/08/18 07:11:03;;;;;;;;;;;;;;;28.34;38.94;94326.47;4951078;28;7014;-57
2023/08/18 07:13:35;;;;;;;;;;;;;;;28.34;39.07;94320.94;4944945;28;8970;-57
2023/08/18 07:16:40;;;;;;;;;;;;;;;28.34;39.32;94327.22;4919961;28;7183;-57
2023/08/18 07:19:15;;;;;;;;;;;;;;;28.33;39.19;94322.22;4894932;29;7518;-56
2023/08/18 07:21:57;;;;;;;;;;;;;;;28.34;39.53;94323.69;4909629;29;9158;-56
2023/08/18 07:24:33;;;;;;;;;;;;;;;28.34;39.11;94327.22;4915776;29;9721;-57
2023/08/18 07:26:59;;;;;;;;;;;;;;;28.33;39.74;94336.81;4904494;29;9061;-56
2023/08/18 07:29:26;;;;;;;;;;;;;;;28.33;39.36;94331.28;4913352;29;7041;-57
2023/08/18 07:31:52;;;;;;;;;;;;;;;28.35;39.24;94339.03;4881436;29;7233;-56
2023/08/18 07:34:18;;;;;;;;;;;;;;;28.36;40.56;94340.53;4918543;28;7266;-57
2023/08/18 07:37:00;;;;;;;;;;;;;;;28.36;44.92;94340.53;4964619;28;9839;-56
2023/08/18 07:39:28;;;;;;;;;;;;;;;28.42;45.08;94340.44;4969483;28;7372;-56
2023/08/18 07:41:54;;;;;;;;;;;;;;;28.44;42.94;94341.41;4990913;28;7072;-56
2023/08/18 07:44:36;;;;;;;;;;;;;;;28.40;41.92;94346.50;4991775;28;7530;-56
2023/08/18 07:47:03;;;;;;;;;;;;;;;28.42;43.72;94355.00;4992483;28;9396;-56
2023/08/18 07:49:38;;;;;;;;;;;;;;;28.43;43.10;94350.97;4974270;28;7243;-56
2023/08/18 07:52:10;;;;;;;;;;;;;;;28.44;43.21;94346.19;4994163;28;9368;-56
2023/08/18 07:54:38;;;;;;;;;;;;;;;28.45;43.02;94347.69;5015103;28;8516;-56
2023/08/18 07:57:23;;;;;;;;;;;;;;;28.44;43.09;94349.69;5031815;28;7858;-56
2023/08/18 07:59:58;;;;;;;;;;;;;;;28.46;42.91;94349.16;5016583;28;8210;-56
2023/08/18 08:02:28;;;;;;;;;;;;;;;28.46;42.57;94351.91;5001793;28;9517;-56
2023/08/18 08:04:56;;;;;;;;;;;;;;;28.47;42.43;94356.91;5026943;28;7286;-62
2023/08/18 08:07:22;;;;;;;;;;;;;;;28.46;42.51;94355.44;5006848;28;9099;-62
2023/08/18 08:09:52;;;;;;;;;;;;;;;28.46;42.24;94349.91;5008119;28;7264;-62
2023/08/18 08:12:39;;;;;;;;;;;;;;;28.46;42.89;94352.69;5026778;28;7159;-62
2023/08/18 08:15:09;;;;;;;;;;;;;;;28.49;41.70;94354.38;5006089;28;7202;-61
2023/08/18 08:17:38;;;;;;;;;;;;;;;28.50;41.95;94352.34;5007756;28;8254;-61
2023/08/18 08:20:18;;;;;;;;;;;;;;;28.48;42.31;94352.13;5012733;28;7416;-61
2023/08/18 08:22:47;;;;;;;;;;;;;;;28.49;42.56;94356.41;5007893;28;9335;-61
2023/08/18 08:25:17;;;;;;;;;;;;;;;28.49;42.02;94361.94;5010830;28;7247;-62
2023/08/18 08:27:45;;;;;;;;;;;;;;;28.49;42.08;94359.16;5006273;28;7233;-62
2023/08/18 08:30:15;;;;;;;;;;;;;;;28.49;41.47;94359.16;5037813;28;9581;-62
2023/08/18 08:32:41;;;;;;;;;;;;;;;28.49;42.09;94354.38;5005536;28;7220;-62
2023/08/18 08:35:23;;;;;;;;;;;;;;;28.49;41.33;94359.16;5025596;28;7412;-62
2023/08/18 08:38:02;;;;;;;;;;;;;;;28.51;42.26;94360.13;5024446;28;9581;-62
2023/08/18 08:40:30;;;;;;;;;;;;;;;28.52;42.06;94358.09;5012158;28;7855;-62
2023/08/18 08:43:17;;;;;;;;;;;;;;;28.51;41.98;94357.38;5011766;28;7337;-62
2023/08/18 08:46:05;;;;;;;;;;;;;;;28.53;41.93;94360.34;5039567;28;7258;-61
2023/08/18 08:48:46;;;;;;;;;;;;;;;28.53;42.29;94352.03;4993787;28;9573;-62
2023/08/18 08:51:44;;;;;;;;;;;;;;;28.53;41.98;94365.88;5007084;28;8780;-62
2023/08/18 08:54:28;;;;;;;;;;;;;;;28.54;42.36;94361.81;4971918;28;7222;-62
2023/08/18 08:56:57;;;;;;;;;;;;;;;28.55;41.91;94363.31;4973157;28;7292;-62
2023/08/18 08:59:35;;;;;;;;;;;;;;;28.53;41.81;94367.91;5001033;28;6999;-61
2023/08/18 09:02:12;;;;;;;;;;;;;;;28.54;41.90;94366.59;4974329;28;7287;-61
2023/08/18 09:05:28;;;;;;;;;;;;;;;28.56;41.71;94367.56;4972622;28;9161;-61
2023/08/18 09:07:54;;;;;;;;;;;;;;;28.55;41.57;94366.09;4932182;28;7014;-62
2023/08/18 09:10:24;;;;;;;;;;;;;;;28.56;41.38;94375.88;4942885;28;7005;-62
2023/08/18 09:12:51;;;;;;;;;;;;;;;28.58;41.86;94369.84;4925053;28;9076;-62
2023/08/18 09:15:17;;;;;;;;;;;;;;;28.58;41.61;94383.69;4949861;28;7152;-64
2023/08/18 09:17:45;;;;;;;;;;;;;;;28.57;42.28;94377.41;4931567;28;9096;-64
2023/08/18 09:20:14;;;;;;;;;;;;;;;28.59;41.68;94377.63;4941602;28;7290;-63
2023/08/18 09:22:53;;;;;;;;;;;;;;;28.59;41.97;94374.84;4951341;28;8277;-63
2023/08/18 09:25:40;;;;;;;;;;;;;;;28.58;42.08;94367.81;4936737;28;7136;-64
2023/08/18 09:28:19;;;;;;;;;;;;;;;28.60;42.05;94375.59;4935376;28;7223;-63
2023/08/18 09:30:47;;;;;;;;;;;;;;;28.59;41.74;94374.84;4943364;28;7265;-64
2023/08/18 09:33:26;;;;;;;;;;;;;;;28.60;41.75;94370.78;4970161;28;9117;-63
2023/08/18 09:36:00;;;;;;;;;;;;;;;28.60;41.73;94365.25;4956668;28;9208;-64
2023/08/18 09:38:44;;;;;;;;;;;;;;;28.61;42.37;94375.06;4987070;28;9308;-63
2023/08/18 09:41:16;;;;;;;;;;;;;;;28.60;41.94;94370.78;4968157;28;7961;-63
2023/08/18 09:43:53;;;;;;;;;;;;;;;28.62;42.22;94368.25;4979006;28;7306;-63
2023/08/18 09:46:36;;;;;;;;;;;;;;;28.63;41.31;94369.75;5037428;28;9087;-64
2023/08/18 09:49:07;;;;;;;;;;;;;;;28.64;41.90;94368.47;5006074;28;7237;-63
2023/08/18 09:52:08;;;;;;;;;;;;;;;28.62;41.58;94361.97;5034230;28;7312;-63
2023/08/18 09:55:13;;;;;;;;;;;;;;;28.67;42.08;94364.63;5007134;28;7446;-63
2023/08/18 09:58:21;;;;;;;;;;;;;;;28.70;41.29;94368.34;4965103;28;9651;-64
2023/08/18 10:00:56;;;;;;;;;;;;;;;28.73;41.89;94362.50;4964670;28;7256;-63
2023/08/18 10:03:26;;;;;;;;;;;;;;;28.73;41.33;94362.50;4956818;28;7238;-63
2023/08/18 10:06:12;;;;;;;;;;;;;;;28.76;41.46;94360.69;4952717;28;9063;-63
2023/08/18 10:08:42;;;;;;;;;;;;;;;28.77;41.40;94365.72;4961495;28;7338;-63
2023/08/18 10:11:10;;;;;;;;;;;;;;;28.79;41.35;94363.16;4967215;28;9542;-64
2023/08/18 10:13:42;;;;;;;;;;;;;;;28.81;41.72;94363.38;4954489;28;7109;-63
2023/08/18 10:16:22;;;;;;;;;;;;;;;28.78;41.04;94347.81;4965387;28;9153;-63
2023/08/18 10:19:16;;;;;;;;;;;;;;;28.82;41.78;94359.31;4955613;28;7628;-63
2023/08/18 10:21:44;;;;;;;;;;;;;;;28.85;41.81;94358.25;4954261;28;7385;-63
2023/08/18 10:24:25;;;;;;;;;;;;;;;28.86;41.53;94356.22;4969056;28;7037;-62
2023/08/18 10:26:52;;;;;;;;;;;;;;;28.82;40.90;94342.69;4959403;28;9119;-62
2023/08/18 10:29:27;;;;;;;;;;;;;;;28.85;42.19;94358.25;4996972;28;7079;-61
2023/08/18 10:31:58;;;;;;;;;;;;;;;28.85;41.93;94363.78;5013882;28;7252;-61
2023/08/18 10:34:26;;;;;;;;;;;;;;;28.84;41.25;94350.47;5010521;28;7280;-61
2023/08/18 10:37:03;;;;;;;;;;;;;;;28.85;41.70;94347.16;5008042;28;9473;-61
2023/08/18 10:39:37;;;;;;;;;;;;;;;28.85;42.19;94349.19;5017981;28;9102;-62
2023/08/18 10:42:07;;;;;;;;;;;;;;;28.91;41.69;94345.03;5004624;28;9301;-62
2023/08/18 10:45:21;;;;;;;;;;;;;;;28.94;41.91;94343.97;5005010;28;7191;-62
2023/08/18 10:47:59;;;;;;;;;;;;;;;28.96;41.85;94341.41;5023613;28;8497;-62
2023/08/18 10:50:29;;;;;;;;;;;;;;;28.95;42.14;94337.13;5014285;28;6864;-62
2023/08/18 10:52:58;;;;;;;;;;;;;;;28.98;41.56;94344.41;5008294;28;7319;-62
2023/08/18 10:55:27;;;;;;;;;;;;;;;28.95;42.12;94337.13;5042098;28;7568;-62
2023/08/18 10:57:58;;;;;;;;;;;;;;;28.94;41.34;94343.97;5029319;28;7245;-61
2023/08/18 11:00:33;;;;;;;;;;;;;;;28.95;41.79;94339.91;5004185;28;9141;-62
2023/08/18 11:03:00;;;;;;;;;;;;;;;28.93;42.03;94336.19;5039671;28;7042;-62
2023/08/18 11:05:31;;;;;;;;;;;;;;;28.93;41.67;94336.94;5020222;28;9268;-62
2023/08/18 11:08:03;;;;;;;;;;;;;;;28.99;42.17;94336.84;5005520;28;7891;-61
2023/08/18 11:10:57;;;;;;;;;;;;;;;29.02;41.07;94333.72;5027959;28;9333;-62
2023/08/18 11:13:37;;;;;;;;;;;;;;;29.04;41.55;94325.63;4973805;28;9640;-62
2023/08/18 11:16:23;;;;;;;;;;;;;;;29.05;41.57;94329.91;4980376;28;7207;-62
2023/08/18 11:18:52;;;;;;;;;;;;;;;29.03;41.30;94324.16;4985573;28;8194;-62
2023/08/18 11:21:18;;;;;;;;;;;;;;;29.02;41.75;94322.66;4969840;28;7207;-62
2023/08/18 11:23:59;;;;;;;;;;;;;;;29.02;41.38;94322.66;4991136;28;7572;-62
2023/08/18 11:26:26;;;;;;;;;;;;;;;29.01;42.18;94321.16;4989190;28;7257;-61
2023/08/18 11:29:07;;;;;;;;;;;;;;;29.03;41.96;94321.38;4967734;28;7237;-62
2023/08/18 11:31:45;;;;;;;;;;;;;;;29.01;42.14;94318.38;4966699;28;7150;-62
2023/08/18 11:34:13;;;;;;;;;;;;;;;29.04;42.01;94320.09;4973615;28;9136;-56
2023/08/18 11:36:44;;;;;;;;;;;;;;;29.05;41.93;94313.28;4970697;28;8835;-56
2023/08/18 11:39:30;;;;;;;;;;;;;;;29.02;41.34;94311.56;4975346;28;7200;-56
2023/08/18 11:42:02;;;;;;;;;;;;;;;29.08;40.95;94314.97;4975796;28;7299;-56
2023/08/18 11:44:28;;;;;;;;;;;;;;;29.11;41.47;94304.84;4987224;28;9213;-57
2023/08/18 11:46:59;;;;;;;;;;;;;;;29.11;41.46;94307.63;4975312;28;7320;-56
2023/08/18 11:49:28;;;;;;;;;;;;;;;29.12;41.90;94309.13;4995321;28;9355;-56
2023/08/18 11:51:59;;;;;;;;;;;;;;;29.11;41.78;94310.38;5014810;28;8113;-56
2023/08/18 11:54:38;;;;;;;;;;;;;;;29.10;41.35;94306.88;5010759;28;7385;-56
2023/08/18 11:57:15;;;;;;;;;;;;;;;29.09;41.13;94299.84;5003336;28;7487;-56
2023/08/18 11:59:46;;;;;;;;;;;;;;;29.12;41.95;94291.75;5026538;28;7924;-57
2023/08/18 12:02:20;;;;;;;;;;;;;;;29.13;41.43;94299.50;5011534;28;7259;-57
2023/08/18 12:04:46;;;;;;;;;;;;;;;29.12;41.61;94292.50;5010554;28;7086;-56
2023/08/18 12:07:12;;;;;;;;;;;;;;;29.14;41.54;94294.72;5027962;28;6991;-57
2023/08/18 12:09:40;;;;;;;;;;;;;;;29.16;41.46;94297.69;5027858;28;7895;-57
2023/08/18 12:12:21;;;;;;;;;;;;;;;29.17;41.89;94293.69;5010557;28;7167;-56
2023/08/18 12:14:47;;;;;;;;;;;;;;;29.18;41.14;94295.91;5018479;28;7434;-57
2023/08/18 12:17:13;;;;;;;;;;;;;;;29.19;41.22;94288.34;5017067;28;7187;-56
2023/08/18 12:20:06;;;;;;;;;;;;;;;29.21;40.96;94286.50;5024345;28;7310;-56
2023/08/18 12:22:39;;;;;;;;;;;;;;;29.18;41.66;94282.06;5012317;28;8851;-56
2023/08/18 12:25:31;;;;;;;;;;;;;;;29.24;41.25;94287.47;5002452;28;9161;-56
2023/08/18 12:27:59;;;;;;;;;;;;;;;29.23;41.39;94291.53;5006306;28;9261;-56
2023/08/18 12:30:27;;;;;;;;;;;;;;;29.22;41.98;94284.50;5013081;28;7199;-57
2023/08/18 12:33:07;;;;;;;;;;;;;;;29.24;42.11;94284.69;5014311;28;9119;-56
2023/08/18 12:35:42;;;;;;;;;;;;;;;29.22;42.18;94282.47;5015894;28;9049;-56
2023/08/18 12:38:09;;;;;;;;;;;;;;;29.24;41.26;94287.47;5012640;28;7009;-56
2023/08/18 12:40:56;;;;;;;;;;;;;;;29.23;41.93;94278.41;5009369;28;7610;-57
2023/08/18 12:43:29;;;;;;;;;;;;;;;29.27;41.94;94286.41;5008747;28;7330;-57
2023/08/18 12:46:05;;;;;;;;;;;;;;;29.31;41.37;94281.28;5001029;28;7285;-57
2023/08/18 12:48:44;;;;;;;;;;;;;;;29.28;42.23;94283.09;5022847;28;7491;-57
2023/08/18 12:51:21;;;;;;;;;;;;;;;29.28;41.26;94277.53;5011063;28;7239;-57
2023/08/18 12:53:56;;;;;;;;;;;;;;;29.29;41.69;94276.28;5007732;28;9177;-57
2023/08/18 12:56:25;;;;;;;;;;;;;;;29.35;41.21;94276.13;5013358;28;7469;-57
2023/08/18 12:59:06;;;;;;;;;;;;;;;29.35;41.70;94267.81;5006829;28;8894;-57
2023/08/18 13:01:34;;;;;;;;;;;;;;;29.34;41.24;94280.22;5009006;28;7229;-57
2023/08/18 13:04:10;;;;;;;;;;;;;;;29.33;41.60;94268.38;5021013;28;7322;-57
2023/08/18 13:06:48;;;;;;;;;;;;;;;29.37;41.39;94268.78;5036944;28;7216;-57
2023/08/18 13:09:14;;;;;;;;;;;;;;;29.41;41.16;94279.53;5003301;28;9390;-57
2023/08/18 13:11:58;;;;;;;;;;;;;;;29.41;40.98;94276.75;5020423;28;7168;-57
2023/08/18 13:14:24;;;;;;;;;;;;;;;29.38;41.87;94273.06;5007813;28;7245;-57
2023/08/18 13:17:00;;;;;;;;;;;;;;;29.37;41.19;94274.31;5010406;28;7048;-57
2023/08/18 13:19:39;;;;;;;;;;;;;;;29.38;41.91;94273.06;5010131;28;7122;-57
2023/08/18 13:22:23;;;;;;;;;;;;;;;29.41;41.56;94273.97;5010466;28;7296;-57
2023/08/18 13:24:54;;;;;;;;;;;;;;;29.42;41.15;94275.47;5006598;28;8415;-57
2023/08/18 13:27:31;;;;;;;;;;;;;;;29.44;40.48;94270.13;5025719;28;9063;-57
2023/08/18 13:30:03;;;;;;;;;;;;;;;29.46;40.95;94267.56;5004701;28;7570;-57
2023/08/18 13:32:31;;;;;;;;;;;;;;;29.46;40.97;94270.34;5027068;28;7975;-57
2023/08/18 13:35:18;;;;;;;;;;;;;;;29.47;41.26;94272.56;5041703;28;9263;-57
2023/08/18 13:37:44;;;;;;;;;;;;;;;29.48;41.58;94267.78;5006429;28;7221;-57
2023/08/18 13:40:10;;;;;;;;;;;;;;;29.47;40.99;94269.06;5013419;28;8893;-57
2023/08/18 13:42:44;;;;;;;;;;;;;;;29.48;41.12;94256.69;5008143;28;7088;-57